Time,TemperatureF,DewpointF,PressureIn,WindDirection,WindDirectionDegrees,WindSpeedMPH,WindSpeedGustMPH,Humidity,HourlyPrecipIn,Conditions,Clouds,dailyrainin,SoftwareType,DateUTC
2013-08-06 00:02:00,83.0,76.0,29.91,SSE,162,1.0,8.0,80,0.00,,,0.00,weatherlink.com 1.10,2013-08-06 05:02:00,
2013-08-06 00:17:00,82.6,76.0,29.91,SE,142,3.0,7.0,81,0.00,,,0.00,weatherlink.com 1.10,2013-08-06 05:17:00,
2013-08-06 00:32:00,82.3,76.0,29.91,SSW,209,2.0,6.0,81,0.00,,,0.00,weatherlink.com 1.10,2013-08-06 05:32:00,
2013-08-06 00:47:00,82.1,76.0,29.91,SSE,165,4.0,6.0,82,0.00,,,0.00,weatherlink.com 1.10,2013-08-06 05:47:00,
2013-08-06 01:02:00,81.8,76.0,29.91,South,187,2.0,6.0,82,0.00,,,0.00,weatherlink.com 1.10,2013-08-06 06:02:00,
2013-08-06 01:17:00,81.5,76.0,29.91,South,179,1.0,5.0,83,0.00,,,0.00,weatherlink.com 1.10,2013-08-06 06:17:00,
2013-08-06 01:32:00,81.2,76.0,29.91,SSW,200,0.0,7.0,83,0.00,,,0.00,weatherlink.com 1.10,2013-08-06 06:32:00,
2013-08-06 01:47:00,80.9,75.0,29.90,SSE,160,3.0,5.0,83,0.00,,,0.00,weatherlink.com 1.10,2013-08-06 06:47:00,
2013-08-06 02:02:00,80.5,75.0,29.89,South,178,1.0,6.0,84,0.00,,,0.00,weatherlink.com 1.10,2013-08-06 07:02:00,
2013-08-06 02:17:00,80.2,75.0,29.89,South,182,3.0,6.0,84,0.00,,,0.00,weatherlink.com 1.10,2013-08-06 07:17:00,
2013-08-06 02:32:00,80.0,75.0,29.89,SSE,167,2.0,6.0,84,0.00,,,0.00,weatherlink.com 1.10,2013-08-06 07:32:00,
2013-08-06 02:49:00,79.7,75.0,29.89,WSW,242,0.0,8.0,84,0.00,,,0.00,weatherlink.com 1.10,2013-08-06 07:49:00,
2013-08-06 03:03:00,79.4,75.0,29.89,South,179,2.0,7.0,85,0.00,,,0.00,weatherlink.com 1.10,2013-08-06 08:03:00,
2013-08-06 03:18:00,79.1,75.0,29.89,South,191,3.0,6.0,86,0.00,,,0.00,weatherlink.com 1.10,2013-08-06 08:18:00,
2013-08-06 03:33:00,78.8,74.0,29.89,South,169,3.0,6.0,86,0.00,,,0.00,weatherlink.com 1.10,2013-08-06 08:33:00,
2013-08-06 03:48:00,78.7,74.0,29.88,South,178,3.0,12.0,86,0.00,,,0.00,weatherlink.com 1.10,2013-08-06 08:48:00,
2013-08-06 04:03:00,78.5,74.0,29.89,South,171,3.0,7.0,87,0.00,,,0.00,weatherlink.com 1.10,2013-08-06 09:03:00,
2013-08-06 04:18:00,78.3,74.0,29.88,SSW,200,2.0,6.0,87,0.00,,,0.00,weatherlink.com 1.10,2013-08-06 09:18:00,
2013-08-06 04:33:00,78.1,74.0,29.88,South,183,3.0,7.0,88,0.00,,,0.00,weatherlink.com 1.10,2013-08-06 09:33:00,
2013-08-06 04:48:00,77.9,74.0,29.88,South,183,4.0,8.0,88,0.00,,,0.00,weatherlink.com 1.10,2013-08-06 09:48:00,
2013-08-06 05:03:00,77.7,74.0,29.89,SSW,193,4.0,5.0,89,0.00,,,0.00,weatherlink.com 1.10,2013-08-06 10:03:00,
2013-08-06 05:18:00,77.5,74.0,29.89,South,186,3.0,4.0,89,0.00,,,0.00,weatherlink.com 1.10,2013-08-06 10:18:00,
2013-08-06 05:33:00,77.3,74.0,29.89,South,174,1.0,4.0,90,0.00,,,0.00,weatherlink.com 1.10,2013-08-06 10:33:00,
2013-08-06 05:48:00,77.0,74.0,29.89,SSE,168,2.0,3.0,90,0.00,,,0.00,weatherlink.com 1.10,2013-08-06 10:48:00,
2013-08-06 06:03:00,76.7,74.0,29.90,South,180,0.0,3.0,91,0.00,,,0.00,weatherlink.com 1.10,2013-08-06 11:03:00,
2013-08-06 06:18:00,76.5,74.0,29.90,South,180,1.0,3.0,91,0.00,,,0.00,weatherlink.com 1.10,2013-08-06 11:18:00,
2013-08-06 06:33:00,76.3,74.0,29.90,SSW,202,2.0,3.0,92,0.00,,,0.00,weatherlink.com 1.10,2013-08-06 11:33:00,
2013-08-06 06:48:00,76.1,74.0,29.91,SSW,202,1.0,5.0,92,0.00,,,0.00,weatherlink.com 1.10,2013-08-06 11:48:00,
2013-08-06 07:03:00,76.2,74.0,29.91,South,184,2.0,5.0,93,0.00,,,0.00,weatherlink.com 1.10,2013-08-06 12:03:00,
2013-08-06 07:18:00,76.3,74.0,29.92,South,180,3.0,5.0,93,0.00,,,0.00,weatherlink.com 1.10,2013-08-06 12:18:00,
2013-08-06 07:33:00,76.7,75.0,29.92,SSE,147,1.0,9.0,93,0.00,,,0.00,weatherlink.com 1.10,2013-08-06 12:33:00,
2013-08-06 07:48:00,77.5,75.0,29.92,South,183,6.0,7.0,93,0.00,,,0.00,weatherlink.com 1.10,2013-08-06 12:48:00,
2013-08-06 08:03:00,78.7,76.0,29.92,South,169,1.0,7.0,90,0.00,,,0.00,weatherlink.com 1.10,2013-08-06 13:03:00,
2013-08-06 08:18:00,79.8,76.0,29.93,South,180,3.0,10.0,88,0.00,,,0.00,weatherlink.com 1.10,2013-08-06 13:18:00,
2013-08-06 08:33:00,80.9,76.0,29.93,SSW,198,3.0,9.0,86,0.00,,,0.00,weatherlink.com 1.10,2013-08-06 13:33:00,
2013-08-06 09:03:00,83.3,77.0,29.93,SSW,196,3.0,11.0,80,0.00,,,0.00,weatherlink.com 1.10,2013-08-06 14:03:00,
2013-08-06 09:18:00,84.6,77.0,29.93,SSE,163,5.0,8.0,78,0.00,,,0.00,weatherlink.com 1.10,2013-08-06 14:18:00,
2013-08-06 09:33:00,85.6,76.0,29.94,SW,225,3.0,11.0,74,0.00,,,0.00,weatherlink.com 1.10,2013-08-06 14:33:00,
2013-08-06 09:48:00,86.2,77.0,29.94,SSE,150,3.0,10.0,74,0.00,,,0.00,weatherlink.com 1.10,2013-08-06 14:48:00,
2013-08-06 10:03:00,87.1,76.0,29.94,SSW,196,3.0,13.0,69,0.00,,,0.00,weatherlink.com 1.10,2013-08-06 15:03:00,
2013-08-06 10:18:00,88.0,77.0,29.94,WNW,294,1.0,7.0,69,0.00,,,0.00,weatherlink.com 1.10,2013-08-06 15:18:00,
2013-08-06 10:33:00,89.5,76.0,29.94,SW,226,1.0,10.0,65,0.00,,,0.00,weatherlink.com 1.10,2013-08-06 15:33:00,
2013-08-06 10:48:00,90.8,76.0,29.94,WSW,244,4.0,8.0,63,0.00,,,0.00,weatherlink.com 1.10,2013-08-06 15:48:00,
2013-08-06 11:04:00,91.3,75.0,29.94,South,181,3.0,9.0,59,0.00,,,0.00,weatherlink.com 1.10,2013-08-06 16:04:00,
2013-08-06 11:19:00,92.2,75.0,29.94,SW,234,4.0,10.0,58,0.00,,,0.00,weatherlink.com 1.10,2013-08-06 16:19:00,
2013-08-06 11:34:00,93.3,75.0,29.93,South,191,11.0,12.0,56,0.00,,,0.00,weatherlink.com 1.10,2013-08-06 16:34:00,
2013-08-06 11:49:00,94.1,76.0,29.93,SSW,199,3.0,9.0,55,0.00,,,0.00,weatherlink.com 1.10,2013-08-06 16:49:00,
2013-08-06 12:04:00,93.4,75.0,29.92,WNW,284,1.0,8.0,55,0.00,,,0.00,weatherlink.com 1.10,2013-08-06 17:04:00,
2013-08-06 12:19:00,94.4,75.0,29.92,WSW,245,2.0,10.0,54,0.00,,,0.00,weatherlink.com 1.10,2013-08-06 17:19:00,
2013-08-06 12:34:00,95.2,75.0,29.92,South,181,1.0,11.0,52,0.00,,,0.00,weatherlink.com 1.10,2013-08-06 17:34:00,
2013-08-06 12:49:00,95.5,74.0,29.91,SSW,205,0.0,11.0,50,0.00,,,0.00,weatherlink.com 1.10,2013-08-06 17:49:00,
2013-08-06 13:04:00,95.8,74.0,29.91,SSW,205,2.0,10.0,50,0.00,,,0.00,weatherlink.com 1.10,2013-08-06 18:04:00,
2013-08-06 13:19:00,97.0,74.0,29.90,NW,313,2.0,7.0,47,0.00,,,0.00,weatherlink.com 1.10,2013-08-06 18:19:00,
2013-08-06 13:34:00,97.3,73.0,29.90,SW,216,4.0,11.0,45,0.00,,,0.00,weatherlink.com 1.10,2013-08-06 18:34:00,
2013-08-06 13:49:00,97.4,73.0,29.89,SW,232,4.0,11.0,46,0.00,,,0.00,weatherlink.com 1.10,2013-08-06 18:49:00,
2013-08-06 14:04:00,99.4,73.0,29.88,SW,216,3.0,10.0,43,0.00,,,0.00,weatherlink.com 1.10,2013-08-06 19:04:00,
2013-08-06 14:19:00,98.1,71.0,29.88,NW,317,3.0,12.0,42,0.00,,,0.00,weatherlink.com 1.10,2013-08-06 19:19:00,
2013-08-06 14:34:00,99.8,74.0,29.87,South,186,1.0,10.0,43,0.00,,,0.00,weatherlink.com 1.10,2013-08-06 19:34:00,
2013-08-06 14:49:00,99.6,72.0,29.87,SSW,207,5.0,8.0,41,0.00,,,0.00,weatherlink.com 1.10,2013-08-06 19:49:00,
2013-08-06 15:04:00,99.1,73.0,29.86,NNW,328,0.0,7.0,43,0.00,,,0.00,weatherlink.com 1.10,2013-08-06 20:04:00,
2013-08-06 15:19:00,99.9,74.0,29.86,SSE,160,6.0,9.0,43,0.00,,,0.00,weatherlink.com 1.10,2013-08-06 20:19:00,
2013-08-06 15:34:00,100.7,72.0,29.85,South,173,12.0,15.0,40,0.00,,,0.00,weatherlink.com 1.10,2013-08-06 20:34:00,
2013-08-06 15:49:00,100.3,73.0,29.84,South,184,3.0,8.0,41,0.00,,,0.00,weatherlink.com 1.10,2013-08-06 20:49:00,
2013-08-06 16:04:00,100.8,72.0,29.84,South,191,2.0,11.0,39,0.00,,,0.00,weatherlink.com 1.10,2013-08-06 21:04:00,
2013-08-06 16:19:00,101.1,72.0,29.83,NE,48,0.0,11.0,39,0.00,,,0.00,weatherlink.com 1.10,2013-08-06 21:19:00,
2013-08-06 16:34:00,100.8,72.0,29.83,SW,223,0.0,9.0,39,0.00,,,0.00,weatherlink.com 1.10,2013-08-06 21:34:00,
2013-08-06 16:49:00,101.0,73.0,29.83,SSE,166,4.0,8.0,40,0.00,,,0.00,weatherlink.com 1.10,2013-08-06 21:49:00,
2013-08-06 17:04:00,100.8,72.0,29.82,SSW,194,3.0,9.0,39,0.00,,,0.00,weatherlink.com 1.10,2013-08-06 22:04:00,
2013-08-06 17:19:00,100.7,72.0,29.82,NE,40,0.0,10.0,39,0.00,,,0.00,weatherlink.com 1.10,2013-08-06 22:19:00,
2013-08-06 17:34:00,101.0,71.0,29.82,South,174,5.0,9.0,38,0.00,,,0.00,weatherlink.com 1.10,2013-08-06 22:34:00,
2013-08-06 17:49:00,100.9,70.0,29.82,South,190,5.0,8.0,37,0.00,,,0.00,weatherlink.com 1.10,2013-08-06 22:49:00,
2013-08-06 18:04:00,100.0,70.0,29.81,SSW,194,0.0,8.0,38,0.00,,,0.00,weatherlink.com 1.10,2013-08-06 23:04:00,
2013-08-06 18:19:00,98.7,70.0,29.81,SSW,194,1.0,7.0,40,0.00,,,0.00,weatherlink.com 1.10,2013-08-06 23:19:00,
2013-08-06 18:34:00,98.2,71.0,29.80,ENE,78,0.0,5.0,41,0.00,,,0.00,weatherlink.com 1.10,2013-08-06 23:34:00,
2013-08-06 18:49:00,97.8,73.0,29.80,South,183,5.0,5.0,45,0.00,,,0.00,weatherlink.com 1.10,2013-08-06 23:49:00,
2013-08-06 19:04:00,96.4,73.0,29.80,SSW,196,1.0,11.0,47,0.00,,,0.00,weatherlink.com 1.10,2013-08-07 00:04:00,
2013-08-06 19:19:00,95.8,73.0,29.80,SE,126,2.0,7.0,48,0.00,,,0.00,weatherlink.com 1.10,2013-08-07 00:19:00,
2013-08-06 19:34:00,95.1,73.0,29.80,South,187,3.0,6.0,49,0.00,,,0.00,weatherlink.com 1.10,2013-08-07 00:34:00,
2013-08-06 19:49:00,94.4,73.0,29.80,SSE,155,3.0,7.0,50,0.00,,,0.00,weatherlink.com 1.10,2013-08-07 00:49:00,
2013-08-06 20:04:00,93.6,73.0,29.81,South,173,2.0,7.0,52,0.00,,,0.00,weatherlink.com 1.10,2013-08-07 01:04:00,
2013-08-06 20:19:00,92.7,74.0,29.81,East,89,1.0,8.0,54,0.00,,,0.00,weatherlink.com 1.10,2013-08-07 01:19:00,
2013-08-06 20:35:00,91.9,74.0,29.82,South,189,2.0,6.0,56,0.00,,,0.00,weatherlink.com 1.10,2013-08-07 01:35:00,
2013-08-06 20:49:00,91.1,75.0,29.82,SSW,209,2.0,6.0,59,0.00,,,0.00,weatherlink.com 1.10,2013-08-07 01:49:00,
2013-08-06 21:04:00,90.4,76.0,29.83,South,190,5.0,8.0,63,0.00,,,0.00,weatherlink.com 1.10,2013-08-07 02:04:00,
2013-08-06 21:19:00,89.6,77.0,29.83,SSW,192,4.0,9.0,66,0.00,,,0.00,weatherlink.com 1.10,2013-08-07 02:19:00,
2013-08-06 21:34:00,88.8,77.0,29.84,SSW,198,4.0,10.0,69,0.00,,,0.00,weatherlink.com 1.10,2013-08-07 02:34:00,
2013-08-06 21:50:00,88.1,78.0,29.84,SSE,163,2.0,9.0,71,0.00,,,0.00,weatherlink.com 1.10,2013-08-07 02:50:00,
2013-08-06 22:05:00,87.5,77.0,29.85,SSE,165,5.0,11.0,72,0.00,,,0.00,weatherlink.com 1.10,2013-08-07 03:05:00,
2013-08-06 22:20:00,87.0,78.0,29.86,South,182,2.0,7.0,74,0.00,,,0.00,weatherlink.com 1.10,2013-08-07 03:20:00,
2013-08-06 22:35:00,86.4,78.0,29.87,South,173,4.0,12.0,75,0.00,,,0.00,weatherlink.com 1.10,2013-08-07 03:35:00,
2013-08-06 22:50:00,85.9,78.0,29.87,SSW,200,4.0,8.0,77,0.00,,,0.00,weatherlink.com 1.10,2013-08-07 03:50:00,
2013-08-06 23:05:00,85.4,77.0,29.88,SSE,154,8.0,8.0,77,0.00,,,0.00,weatherlink.com 1.10,2013-08-07 04:05:00,
2013-08-06 23:20:00,84.9,77.0,29.88,SSW,200,3.0,9.0,78,0.00,,,0.00,weatherlink.com 1.10,2013-08-07 04:20:00,
2013-08-06 23:35:00,84.4,77.0,29.88,SSW,208,4.0,10.0,79,0.00,,,0.00,weatherlink.com 1.10,2013-08-07 04:35:00,
2013-08-06 23:53:00,83.9,77.0,29.88,South,179,5.0,7.0,79,0.00,,,0.00,weatherlink.com 1.10,2013-08-07 04:53:00,